Time;durP1;ratioP1;P1;durP2;ratioP2;P2;SDS_P1;SDS_P2;PMS_P1;PMS_P2;Temp;Humidity;BMP_temperature;BMP_pressure;BME280_temperature;BME280_humidity;BME280_pressure;Samples;Min_cycle;Max_cycle;Signal;HPM_P1;HPM_P2
2022/04/17 00:02:22;;;;;;;8.48;5.38;;;;;;;;;;6203742;23;20044;-46
2022/04/17 00:04:47;;;;;;;8.55;5.28;;;;;;;;;;6205751;23;20493;-48
2022/04/17 00:07:13;;;;;;;9.77;5.60;;;;;;;;;;6202342;23;20056;-45
2022/04/17 00:09:38;;;;;;;8.93;5.40;;;;;;;;;;6205458;23;20040;-45
2022/04/17 00:12:03;;;;;;;10.90;4.80;;;;;;;;;;6202449;23;20099;-45
2022/04/17 00:14:29;;;;;;;6.30;4.97;;;;;;;;;;6204700;23;20152;-45
2022/04/17 00:16:55;;;;;;;7.45;4.57;;;;;;;;;;6203737;23;20122;-48
2022/04/17 00:19:20;;;;;;;7.90;4.45;;;;;;;;;;6203304;23;20028;-45
2022/04/17 00:21:45;;;;;;;7.47;4.93;;;;;;;;;;6203666;23;20047;-45
2022/04/17 00:24:12;;;;;;;7.25;4.53;;;;;;;;;;6205241;23;20028;-47
2022/04/17 00:26:37;;;;;;;8.55;4.93;;;;;;;;;;6203193;23;20012;-45
2022/04/17 00:29:02;;;;;;;6.22;4.53;;;;;;;;;;6203334;23;20076;-47
2022/04/17 00:31:27;;;;;;;8.98;5.35;;;;;;;;;;6202041;23;20021;-44
2022/04/17 00:33:53;;;;;;;8.95;5.40;;;;;;;;;;6205569;23;20009;-45
2022/04/17 00:36:18;;;;;;;8.13;5.80;;;;;;;;;;6201552;23;20484;-46
2022/04/17 00:38:44;;;;;;;9.40;5.32;;;;;;;;;;6205258;23;20449;-46
2022/04/17 00:41:09;;;;;;;7.90;5.50;;;;;;;;;;6202667;23;20071;-45
2022/04/17 00:43:42;;;;;;;8.00;5.00;;;;;;;;;;6204337;23;20012;-45
2022/04/17 00:46:08;;;;;;;10.77;6.07;;;;;;;;;;6200326;23;20068;-44
2022/04/17 00:48:33;;;;;;;10.45;5.38;;;;;;;;;;6204851;23;20005;-45
2022/04/17 00:50:59;;;;;;;12.57;5.55;;;;;;;;;;6204305;23;20450;-46
2022/04/17 00:53:26;;;;;;;7.35;5.00;;;;;;;;;;6203306;23;20726;-45
2022/04/17 00:55:51;;;;;;;8.90;5.88;;;;;;;;;;6204367;23;20008;-46
2022/04/17 00:58:17;;;;;;;11.65;6.47;;;;;;;;;;6203745;23;20088;-45
2022/04/17 01:00:42;;;;;;;9.35;6.95;;;;;;;;;;6203243;23;20139;-46
2022/04/17 01:03:10;;;;;;;14.05;7.00;;;;;;;;;;6205875;23;20009;-48
2022/04/17 01:05:37;;;;;;;11.85;7.45;;;;;;;;;;6200632;23;20028;-47
2022/04/17 01:08:02;;;;;;;11.48;6.90;;;;;;;;;;6204710;23;20009;-44
2022/04/17 01:10:28;;;;;;;13.95;7.25;;;;;;;;;;6201493;23;20534;-44
2022/04/17 01:12:53;;;;;;;14.65;7.70;;;;;;;;;;6205053;23;20008;-45
2022/04/17 01:15:19;;;;;;;13.07;7.00;;;;;;;;;;6201449;23;20012;-44
2022/04/17 01:17:44;;;;;;;14.40;8.45;;;;;;;;;;6205241;23;20024;-47
2022/04/17 01:20:10;;;;;;;14.70;7.75;;;;;;;;;;6201344;23;20103;-50
2022/04/17 01:22:35;;;;;;;9.63;5.80;;;;;;;;;;6203539;23;20005;-46
2022/04/17 01:27:44;;;;;;;10.68;5.13;;;;;;;;;;6205470;23;20016;-46
2022/04/17 01:30:10;;;;;;;10.95;5.30;;;;;;;;;;6202827;23;20020;-45
2022/04/17 01:32:35;;;;;;;10.38;5.70;;;;;;;;;;6205501;23;20005;-46
2022/04/17 01:35:01;;;;;;;7.70;5.30;;;;;;;;;;6203537;23;20026;-46
2022/04/17 01:37:26;;;;;;;9.63;6.00;;;;;;;;;;6204551;23;20017;-44
2022/04/17 01:39:51;;;;;;;10.73;5.55;;;;;;;;;;6203092;23;20013;-44
2022/04/17 01:42:16;;;;;;;10.50;6.10;;;;;;;;;;6202281;23;20001;-44
2022/04/17 01:44:42;;;;;;;11.85;6.22;;;;;;;;;;6202987;23;20011;-43
2022/04/17 01:47:07;;;;;;;10.85;6.18;;;;;;;;;;6205010;23;20012;-44
2022/04/17 01:49:32;;;;;;;9.77;6.45;;;;;;;;;;6203022;23;20020;-44
2022/04/17 01:51:58;;;;;;;9.52;6.20;;;;;;;;;;6203977;23;20068;-44
2022/04/17 01:54:25;;;;;;;14.10;7.30;;;;;;;;;;6202069;23;20016;-44
2022/04/17 01:56:50;;;;;;;11.18;6.88;;;;;;;;;;6206122;23;20016;-47
2022/04/17 01:59:16;;;;;;;12.95;8.10;;;;;;;;;;6203632;23;20012;-45
2022/04/17 02:01:42;;;;;;;14.05;8.80;;;;;;;;;;6206653;23;20027;-45
2022/04/17 02:04:08;;;;;;;14.07;8.65;;;;;;;;;;6205216;23;20016;-47
2022/04/17 02:06:34;;;;;;;17.52;8.50;;;;;;;;;;6206134;23;20019;-45
2022/04/17 02:08:59;;;;;;;11.80;7.60;;;;;;;;;;6204705;23;20021;-44
2022/04/17 02:11:25;;;;;;;13.35;7.70;;;;;;;;;;6203753;23;20016;-46
2022/04/17 02:13:51;;;;;;;27.83;6.93;;;;;;;;;;6204347;23;20008;-44
2022/04/17 02:16:19;;;;;;;11.95;7.03;;;;;;;;;;6205683;23;20388;-44
2022/04/17 02:18:45;;;;;;;11.10;6.63;;;;;;;;;;6198268;23;20012;-44
2022/04/17 02:21:10;;;;;;;17.02;6.88;;;;;;;;;;6204425;23;20063;-44
2022/04/17 02:23:36;;;;;;;13.13;7.22;;;;;;;;;;6205988;23;20028;-48
2022/04/17 02:26:01;;;;;;;13.82;6.72;;;;;;;;;;6207318;23;20104;-46
2022/04/17 02:28:29;;;;;;;11.57;6.55;;;;;;;;;;6204999;23;20070;-46
2022/04/17 02:30:54;;;;;;;13.15;7.53;;;;;;;;;;6205459;23;20055;-46
2022/04/17 02:33:19;;;;;;;13.98;7.60;;;;;;;;;;6205568;23;20008;-44
2022/04/17 02:35:45;;;;;;;15.68;8.80;;;;;;;;;;6203170;23;20412;-44
2022/04/17 02:38:10;;;;;;;11.80;8.02;;;;;;;;;;6204936;23;20036;-45
2022/04/17 02:40:36;;;;;;;15.80;7.82;;;;;;;;;;6205432;23;20023;-45
2022/04/17 02:43:01;;;;;;;17.20;8.50;;;;;;;;;;6206561;23;20009;-45
2022/04/17 02:45:27;;;;;;;16.88;8.90;;;;;;;;;;6228134;23;20107;-45
2022/04/17 02:47:53;;;;;;;19.08;9.70;;;;;;;;;;6206838;23;20009;-44
2022/04/17 02:50:19;;;;;;;16.13;9.90;;;;;;;;;;6209211;22;20026;-53
2022/04/17 02:52:45;;;;;;;19.20;10.75;;;;;;;;;;6242882;22;20011;-52
2022/04/17 02:55:10;;;;;;;16.58;10.68;;;;;;;;;;6265522;22;20205;-55
2022/04/17 02:57:36;;;;;;;18.88;11.38;;;;;;;;;;6267382;22;20561;-54
2022/04/17 03:00:02;;;;;;;21.67;10.95;;;;;;;;;;6266158;22;20084;-55
2022/04/17 03:07:57;;;;;;;22.88;11.80;;;;;;;;;;6266699;22;20031;-52
2022/04/17 03:10:23;;;;;;;22.65;12.35;;;;;;;;;;6265989;22;20019;-54
2022/04/17 03:12:48;;;;;;;21.50;12.38;;;;;;;;;;6265589;22;20013;-54
2022/04/17 03:15:13;;;;;;;22.05;12.18;;;;;;;;;;6266959;22;20015;-54
2022/04/17 03:17:39;;;;;;;23.63;13.90;;;;;;;;;;6264849;22;20018;-52
2022/04/17 03:20:05;;;;;;;22.60;12.52;;;;;;;;;;6267212;22;20787;-53
2022/04/17 03:22:30;;;;;;;18.65;10.50;;;;;;;;;;6264726;22;20011;-53
2022/04/17 03:24:55;;;;;;;20.58;10.93;;;;;;;;;;6266446;22;20062;-54
2022/04/17 03:27:21;;;;;;;22.77;12.02;;;;;;;;;;6266164;22;20011;-53
2022/04/17 03:29:47;;;;;;;18.58;11.48;;;;;;;;;;6263593;22;20024;-53
2022/04/17 03:32:12;;;;;;;20.48;10.63;;;;;;;;;;6267182;22;20003;-52
2022/04/17 03:34:37;;;;;;;22.23;11.90;;;;;;;;;;6264730;22;20008;-54
2022/04/17 03:37:03;;;;;;;22.58;12.55;;;;;;;;;;6267624;22;20475;-51
2022/04/17 03:39:28;;;;;;;18.92;12.43;;;;;;;;;;6263956;22;20616;-52
2022/04/17 03:41:54;;;;;;;25.25;12.98;;;;;;;;;;6267586;22;20012;-52
2022/04/17 03:44:19;;;;;;;20.17;12.07;;;;;;;;;;6264787;22;20248;-56
2022/04/17 03:46:45;;;;;;;23.45;12.55;;;;;;;;;;6266950;22;20007;-53
2022/04/17 03:49:10;;;;;;;23.75;12.15;;;;;;;;;;6264342;22;20016;-51
2022/04/17 03:51:36;;;;;;;26.08;13.23;;;;;;;;;;6266877;22;20088;-52
2022/04/17 03:54:01;;;;;;;26.10;14.32;;;;;;;;;;6265053;22;20059;-50
2022/04/17 03:56:26;;;;;;;32.47;15.20;;;;;;;;;;6266281;22;20008;-54
2022/04/17 03:58:51;;;;;;;27.23;14.65;;;;;;;;;;6264212;22;20023;-51
2022/04/17 04:01:17;;;;;;;25.08;14.40;;;;;;;;;;6258746;22;20018;-55
2022/04/17 04:03:42;;;;;;;24.23;12.80;;;;;;;;;;6264248;22;20019;-53
2022/04/17 04:06:07;;;;;;;22.67;13.57;;;;;;;;;;6266893;22;20034;-54
2022/04/17 04:08:32;;;;;;;29.33;14.23;;;;;;;;;;6263518;22;20008;-51
2022/04/17 04:10:58;;;;;;;26.75;13.43;;;;;;;;;;6265527;22;20256;-54
2022/04/17 04:13:23;;;;;;;23.92;13.48;;;;;;;;;;6264791;22;20095;-55
2022/04/17 04:15:48;;;;;;;24.02;14.20;;;;;;;;;;6265786;22;20396;-53
2022/04/17 04:18:14;;;;;;;22.10;12.52;;;;;;;;;;6264199;22;20003;-53
2022/04/17 04:20:39;;;;;;;24.83;13.13;;;;;;;;;;6264990;22;20114;-55
2022/04/17 04:23:05;;;;;;;27.83;14.15;;;;;;;;;;6265233;22;20038;-53
2022/04/17 04:25:30;;;;;;;25.08;14.05;;;;;;;;;;6265355;22;20015;-52
2022/04/17 04:30:39;;;;;;;28.27;14.48;;;;;;;;;;6264434;22;20105;-52
2022/04/17 04:33:04;;;;;;;29.92;15.60;;;;;;;;;;6266304;22;20375;-54
2022/04/17 04:35:29;;;;;;;32.38;16.55;;;;;;;;;;6262531;22;20014;-50
2022/04/17 04:37:56;;;;;;;30.45;17.33;;;;;;;;;;6266175;22;20004;-54
2022/04/17 04:40:21;;;;;;;32.97;17.35;;;;;;;;;;6262882;22;20008;-53
2022/04/17 04:42:47;;;;;;;32.72;16.40;;;;;;;;;;6267184;22;20022;-53
2022/04/17 04:47:56;;;;;;;33.83;18.17;;;;;;;;;;6265848;22;20026;-55
2022/04/17 04:50:21;;;;;;;32.17;17.98;;;;;;;;;;6264012;22;20019;-54
2022/04/17 04:52:47;;;;;;;37.60;20.65;;;;;;;;;;6264383;22;20011;-51
2022/04/17 04:55:12;;;;;;;36.20;18.23;;;;;;;;;;6264534;22;20008;-54
2022/04/17 04:57:38;;;;;;;41.28;21.23;;;;;;;;;;6266266;22;20008;-52
2022/04/17 05:00:07;;;;;;;36.55;19.20;;;;;;;;;;6264481;22;20019;-54
2022/04/17 05:02:37;;;;;;;37.15;19.80;;;;;;;;;;6263676;22;20083;-52
2022/04/17 05:05:02;;;;;;;39.67;21.00;;;;;;;;;;6266288;22;20071;-55
2022/04/17 05:07:28;;;;;;;44.40;18.65;;;;;;;;;;6263272;22;20008;-50
2022/04/17 05:09:53;;;;;;;37.13;21.05;;;;;;;;;;6266418;22;20007;-52
2022/04/17 05:12:19;;;;;;;37.17;20.88;;;;;;;;;;6264816;22;20012;-53
2022/04/17 05:14:45;;;;;;;38.25;20.70;;;;;;;;;;6264732;22;20004;-54
2022/04/17 05:17:11;;;;;;;44.88;20.95;;;;;;;;;;6264980;22;20060;-50
2022/04/17 05:19:39;;;;;;;40.88;20.70;;;;;;;;;;6266444;22;20016;-54
2022/04/17 05:22:10;;;;;;;42.38;21.10;;;;;;;;;;6262648;22;20012;-55
2022/04/17 05:24:35;;;;;;;34.38;19.02;;;;;;;;;;6266214;22;20008;-55
2022/04/17 05:27:01;;;;;;;39.83;20.80;;;;;;;;;;6264642;22;20038;-53
2022/04/17 05:29:26;;;;;;;39.95;20.67;;;;;;;;;;6265881;22;20016;-52
2022/04/17 05:31:52;;;;;;;53.80;26.38;;;;;;;;;;6265251;22;20011;-55
2022/04/17 05:34:17;;;;;;;48.47;26.23;;;;;;;;;;6266608;22;20073;-52
2022/04/17 05:36:43;;;;;;;50.65;25.67;;;;;;;;;;6265775;22;20012;-54
2022/04/17 05:39:08;;;;;;;62.25;28.42;;;;;;;;;;6269040;22;20016;-53
2022/04/17 05:41:34;;;;;;;57.80;29.08;;;;;;;;;;6265528;22;20070;-55
2022/04/17 05:43:59;;;;;;;55.47;29.33;;;;;;;;;;6269550;22;20091;-55
2022/04/17 05:46:27;;;;;;;73.28;31.23;;;;;;;;;;6265629;22;20643;-55
2022/04/17 05:48:52;;;;;;;68.45;33.20;;;;;;;;;;6269028;22;20007;-54
2022/04/17 05:51:17;;;;;;;79.65;35.20;;;;;;;;;;6265306;22;20378;-54
2022/04/17 05:53:43;;;;;;;68.78;33.17;;;;;;;;;;6266633;22;20007;-50
2022/04/17 05:56:08;;;;;;;70.40;34.95;;;;;;;;;;6267278;22;20035;-53
2022/04/17 05:58:33;;;;;;;69.55;34.72;;;;;;;;;;6267820;22;20064;-55
2022/04/17 06:00:59;;;;;;;69.97;34.22;;;;;;;;;;6265450;22;20039;-54
2022/04/17 06:03:25;;;;;;;70.85;35.22;;;;;;;;;;6267214;22;20004;-54
2022/04/17 06:05:51;;;;;;;71.55;34.60;;;;;;;;;;6266409;22;20020;-53
2022/04/17 06:08:16;;;;;;;76.22;34.08;;;;;;;;;;6267137;22;20065;-53
2022/04/17 06:10:41;;;;;;;62.15;32.42;;;;;;;;;;6266619;22;20023;-56
2022/04/17 06:13:07;;;;;;;68.93;33.17;;;;;;;;;;6267712;22;20018;-56
2022/04/17 06:15:32;;;;;;;68.70;33.10;;;;;;;;;;6266302;22;20055;-55
2022/04/17 06:17:58;;;;;;;62.67;32.38;;;;;;;;;;6267988;22;20012;-53
2022/04/17 06:20:23;;;;;;;66.18;32.72;;;;;;;;;;6264681;22;20020;-56
2022/04/17 06:22:48;;;;;;;67.22;32.63;;;;;;;;;;6268044;22;20016;-52
2022/04/17 06:25:14;;;;;;;71.95;32.47;;;;;;;;;;6265411;22;20012;-56
2022/04/17 06:27:40;;;;;;;65.72;32.60;;;;;;;;;;6266920;22;20084;-55
2022/04/17 06:30:15;;;;;;;60.30;31.65;;;;;;;;;;6265878;22;20050;-55
2022/04/17 06:32:41;;;;;;;68.47;32.53;;;;;;;;;;6266368;22;20003;-54
2022/04/17 06:35:07;;;;;;;66.18;30.73;;;;;;;;;;6266533;22;20012;-55
2022/04/17 06:37:48;;;;;;;65.28;32.60;;;;;;;;;;6267063;22;20023;-55
2022/04/17 06:40:20;;;;;;;65.45;31.50;;;;;;;;;;6267217;22;20020;-53
2022/04/17 06:42:46;;;;;;;66.15;32.72;;;;;;;;;;6266450;22;20019;-54
2022/04/17 06:45:11;;;;;;;67.18;31.45;;;;;;;;;;6266315;22;20014;-55
2022/04/17 06:47:37;;;;;;;63.90;32.50;;;;;;;;;;6264932;22;20012;-56
2022/04/17 06:50:02;;;;;;;64.45;30.77;;;;;;;;;;6267520;22;20024;-55
2022/04/17 06:52:28;;;;;;;56.83;29.75;;;;;;;;;;6265330;22;20021;-54
2022/04/17 06:54:53;;;;;;;62.35;30.30;;;;;;;;;;6267552;22;20022;-56
2022/04/17 06:57:18;;;;;;;63.03;32.10;;;;;;;;;;6266051;22;20037;-54
2022/04/17 06:59:43;;;;;;;63.05;30.30;;;;;;;;;;6267293;22;20035;-54
2022/04/17 07:02:09;;;;;;;68.05;32.33;;;;;;;;;;6266641;22;20175;-55
2022/04/17 07:04:34;;;;;;;66.80;30.05;;;;;;;;;;6266534;22;20055;-53
2022/04/17 07:06:59;;;;;;;62.80;29.92;;;;;;;;;;6266419;22;20027;-51
2022/04/17 07:09:24;;;;;;;51.45;28.02;;;;;;;;;;6264763;22;20334;-53
2022/04/17 07:11:50;;;;;;;57.22;28.30;;;;;;;;;;6267227;22;20023;-54
2022/04/17 07:14:15;;;;;;;61.03;30.25;;;;;;;;;;6264977;22;20592;-56
2022/04/17 07:16:42;;;;;;;57.25;29.98;;;;;;;;;;6266120;22;20008;-56
2022/04/17 07:19:07;;;;;;;58.95;29.80;;;;;;;;;;6265916;22;20015;-56
2022/04/17 07:21:32;;;;;;;58.58;28.85;;;;;;;;;;6266343;22;20018;-58
2022/04/17 07:23:58;;;;;;;54.60;27.17;;;;;;;;;;6265180;22;20015;-57
2022/04/17 07:26:23;;;;;;;49.47;27.00;;;;;;;;;;6265727;22;20012;-56
2022/04/17 07:28:49;;;;;;;52.22;27.83;;;;;;;;;;6265042;22;20563;-55
2022/04/17 07:31:14;;;;;;;54.42;26.38;;;;;;;;;;6266852;22;20019;-54
2022/04/17 07:33:39;;;;;;;51.30;27.20;;;;;;;;;;6265167;22;20623;-55
2022/04/17 07:36:05;;;;;;;51.85;27.95;;;;;;;;;;6266339;22;20079;-55
2022/04/17 07:38:30;;;;;;;53.97;27.05;;;;;;;;;;6264930;22;20008;-54
2022/04/17 07:40:55;;;;;;;55.97;28.30;;;;;;;;;;6266446;22;20047;-54
2022/04/17 07:43:21;;;;;;;47.33;24.60;;;;;;;;;;6264007;22;20030;-55
2022/04/17 07:45:46;;;;;;;51.95;28.38;;;;;;;;;;6266215;22;20018;-56
2022/04/17 07:48:11;;;;;;;60.00;27.35;;;;;;;;;;6264498;22;20030;-54
2022/04/17 07:50:36;;;;;;;53.20;27.50;;;;;;;;;;6266709;22;20015;-55
2022/04/17 07:53:02;;;;;;;54.95;26.38;;;;;;;;;;6263553;22;20705;-52
2022/04/17 07:55:27;;;;;;;48.55;25.27;;;;;;;;;;6265612;22;20007;-55
2022/04/17 07:57:59;;;;;;;48.05;24.40;;;;;;;;;;6265532;22;20063;-54
2022/04/17 08:00:25;;;;;;;49.78;24.80;;;;;;;;;;6265802;22;20035;-56
2022/04/17 08:03:07;;;;;;;46.33;23.77;;;;;;;;;;6266932;22;20381;-53
2022/04/17 08:05:35;;;;;;;45.90;22.85;;;;;;;;;;6265435;22;20038;-55
2022/04/17 08:08:01;;;;;;;46.13;23.05;;;;;;;;;;6265978;22;20023;-56
2022/04/17 08:10:26;;;;;;;45.85;23.23;;;;;;;;;;6266125;22;20811;-55
2022/04/17 08:12:52;;;;;;;45.60;23.67;;;;;;;;;;6264019;22;20011;-56
2022/04/17 08:15:17;;;;;;;40.65;22.10;;;;;;;;;;6265948;22;20004;-57
2022/04/17 08:17:42;;;;;;;44.58;22.73;;;;;;;;;;6263544;22;20634;-55
2022/04/17 08:20:08;;;;;;;45.67;21.65;;;;;;;;;;6266880;22;20020;-56
2022/04/17 08:22:33;;;;;;;43.42;23.90;;;;;;;;;;6263603;22;20075;-52
2022/04/17 08:24:58;;;;;;;39.33;21.95;;;;;;;;;;6266605;22;20511;-55
2022/04/17 08:27:24;;;;;;;43.47;20.85;;;;;;;;;;6263479;22;20012;-53
2022/04/17 08:29:49;;;;;;;44.22;21.67;;;;;;;;;;6266247;22;20513;-54
2022/04/17 08:32:14;;;;;;;37.75;19.70;;;;;;;;;;6264301;22;20362;-57
2022/04/17 08:34:39;;;;;;;40.83;19.85;;;;;;;;;;6264837;22;20575;-56
2022/04/17 08:37:05;;;;;;;36.58;18.98;;;;;;;;;;6266330;22;20506;-56
2022/04/17 08:39:30;;;;;;;39.20;19.08;;;;;;;;;;6264596;22;20019;-55
2022/04/17 08:41:56;;;;;;;39.53;20.67;;;;;;;;;;6266019;22;20012;-55
2022/04/17 08:44:22;;;;;;;39.00;19.65;;;;;;;;;;6264566;22;20060;-56
2022/04/17 08:46:47;;;;;;;39.78;20.27;;;;;;;;;;6266020;22;20016;-56
2022/04/17 08:49:13;;;;;;;36.38;21.08;;;;;;;;;;6265158;22;20038;-56
2022/04/17 08:51:39;;;;;;;37.28;20.48;;;;;;;;;;6264969;22;20020;-56
2022/04/17 08:54:05;;;;;;;39.30;18.60;;;;;;;;;;6264971;22;20022;-54
2022/04/17 08:56:30;;;;;;;30.17;17.35;;;;;;;;;;6264808;22;20012;-54
2022/04/17 08:58:56;;;;;;;37.08;17.40;;;;;;;;;;6265578;22;20060;-53
2022/04/17 09:01:21;;;;;;;34.53;17.88;;;;;;;;;;6264366;22;20063;-56
2022/04/17 09:03:47;;;;;;;32.45;17.17;;;;;;;;;;6265389;22;20007;-54
2022/04/17 09:06:13;;;;;;;31.83;16.02;;;;;;;;;;6266155;22;20063;-56
2022/04/17 09:08:55;;;;;;;31.45;16.38;;;;;;;;;;6266405;22;20012;-55
2022/04/17 09:11:24;;;;;;;28.27;16.05;;;;;;;;;;6266107;22;20059;-55
2022/04/17 09:13:54;;;;;;;23.38;13.55;;;;;;;;;;6267507;22;20027;-57
2022/04/17 09:16:19;;;;;;;;;;;;;;;;;;6265462;22;20004;-56
2022/04/17 09:18:44;;;;;;;21.55;11.80;;;;;;;;;;6267826;22;19910;-55
2022/04/17 09:21:09;;;;;;;22.05;10.73;;;;;;;;;;6266436;22;20022;-56
2022/04/17 09:23:38;;;;;;;10.75;7.38;;;;;;;;;;6268310;22;20087;-52
2022/04/17 09:26:07;;;;;;;17.40;9.20;;;;;;;;;;6266802;22;20043;-55
2022/04/17 09:28:33;;;;;;;9.70;6.85;;;;;;;;;;6266774;22;20032;-57
2022/04/17 09:31:01;;;;;;;13.60;8.10;;;;;;;;;;6268323;22;20109;-54
2022/04/17 09:33:34;;;;;;;13.10;8.27;;;;;;;;;;6265427;22;20013;-55
2022/04/17 09:35:59;;;;;;;14.43;8.25;;;;;;;;;;6267328;22;20015;-55
2022/04/17 09:38:28;;;;;;;15.75;8.60;;;;;;;;;;6266762;22;20083;-54
2022/04/17 09:41:02;;;;;;;17.25;8.77;;;;;;;;;;6267375;22;20023;-55
2022/04/17 09:43:31;;;;;;;15.02;8.02;;;;;;;;;;6267270;22;20008;-55
2022/04/17 09:46:01;;;;;;;11.98;6.90;;;;;;;;;;6267718;22;20019;-57
2022/04/17 09:48:31;;;;;;;16.95;7.82;;;;;;;;;;6266867;22;20008;-56
2022/04/17 09:50:56;;;;;;;13.13;7.57;;;;;;;;;;6266629;22;20043;-57
2022/04/17 09:53:35;;;;;;;14.48;8.40;;;;;;;;;;6265645;22;20018;-53
2022/04/17 09:56:06;;;;;;;13.48;7.30;;;;;;;;;;6264793;22;20022;-54
2022/04/17 09:58:34;;;;;;;14.10;7.97;;;;;;;;;;6267372;22;20010;-55
2022/04/17 10:01:00;;;;;;;13.93;8.13;;;;;;;;;;6267842;22;20094;-55
2022/04/17 10:03:25;;;;;;;17.98;9.30;;;;;;;;;;6267510;22;20007;-56
2022/04/17 10:05:51;;;;;;;13.98;7.95;;;;;;;;;;6266665;22;20275;-54
2022/04/17 10:08:17;;;;;;;14.75;8.43;;;;;;;;;;6267294;22;20007;-54
2022/04/17 10:10:42;;;;;;;11.93;6.57;;;;;;;;;;6266158;22;20011;-58
2022/04/17 10:13:08;;;;;;;13.88;7.57;;;;;;;;;;6267442;22;20012;-55
2022/04/17 10:15:33;;;;;;;15.88;9.13;;;;;;;;;;6266146;22;20008;-56
2022/04/17 10:17:59;;;;;;;11.43;5.88;;;;;;;;;;6266550;22;20012;-53
2022/04/17 10:20:25;;;;;;;14.95;8.13;;;;;;;;;;6266744;22;20019;-53
2022/04/17 10:22:57;;;;;;;12.07;8.02;;;;;;;;;;6265605;22;20008;-54
2022/04/17 10:25:22;;;;;;;13.85;8.00;;;;;;;;;;6264103;22;20016;-54
2022/04/17 10:27:56;;;;;;;14.93;8.45;;;;;;;;;;6267695;22;20019;-55
2022/04/17 10:30:29;;;;;;;16.65;8.43;;;;;;;;;;6265137;22;20021;-56
2022/04/17 10:33:33;;;;;;;15.13;9.20;;;;;;;;;;6267623;22;20063;-56
2022/04/17 10:36:19;;;;;;;14.10;8.07;;;;;;;;;;6148021;23;20036;-55
2022/04/17 10:38:57;;;;;;;12.63;7.95;;;;;;;;;;6154258;23;20001;-51
2022/04/17 10:41:22;;;;;;;13.43;7.75;;;;;;;;;;6235907;22;20026;-52
2022/04/17 10:43:47;;;;;;;13.52;6.55;;;;;;;;;;6265681;22;20031;-49
2022/04/17 10:46:14;;;;;;;15.27;8.32;;;;;;;;;;6266369;22;20008;-51
2022/04/17 10:48:54;;;;;;;9.68;6.50;;;;;;;;;;6264873;22;20042;-53
2022/04/17 10:51:19;;;;;;;11.30;5.80;;;;;;;;;;6264030;22;20024;-50
2022/04/17 10:53:49;;;;;;;12.25;7.25;;;;;;;;;;6264835;22;20019;-51
2022/04/17 10:56:14;;;;;;;;;;;;;;;;;;6266311;22;20143;-54
2022/04/17 10:58:51;;;;;;;8.77;5.82;;;;;;;;;;6267259;22;19907;-55
2022/04/17 11:01:36;;;;;;;9.63;5.28;;;;;;;;;;6266378;22;20031;-52
2022/04/17 11:04:14;;;;;;;8.38;5.38;;;;;;;;;;6266883;22;20627;-53
2022/04/17 11:06:39;;;;;;;8.27;4.93;;;;;;;;;;6266240;22;20011;-54
2022/04/17 11:09:09;;;;;;;7.32;5.10;;;;;;;;;;6266198;22;20014;-54
2022/04/17 11:11:35;;;;;;;5.18;4.43;;;;;;;;;;6267583;22;20011;-54
2022/04/17 11:14:11;;;;;;;5.57;4.40;;;;;;;;;;6265745;22;20011;-54
2022/04/17 11:16:48;;;;;;;4.53;3.50;;;;;;;;;;6265274;22;20038;-56
2022/04/17 11:19:15;;;;;;;4.90;3.75;;;;;;;;;;6266691;22;20023;-55
2022/04/17 11:21:44;;;;;;;6.70;4.53;;;;;;;;;;6265676;22;20042;-56
2022/04/17 11:24:09;;;;;;;5.97;4.13;;;;;;;;;;6266498;22;20039;-55
2022/04/17 11:26:53;;;;;;;7.95;4.18;;;;;;;;;;6266180;22;20546;-54
2022/04/17 11:29:37;;;;;;;6.97;3.95;;;;;;;;;;6264578;22;20016;-54
2022/04/17 11:32:03;;;;;;;4.45;3.13;;;;;;;;;;6267045;22;20090;-55
2022/04/17 11:34:41;;;;;;;4.75;3.17;;;;;;;;;;6264440;22;21564;-57
2022/04/17 11:37:06;;;;;;;6.97;3.58;;;;;;;;;;6265960;22;20004;-57
2022/04/17 11:39:32;;;;;;;5.35;3.30;;;;;;;;;;6265733;22;20012;-55
2022/04/17 11:41:59;;;;;;;3.75;3.15;;;;;;;;;;6267026;22;20409;-56
2022/04/17 11:44:24;;;;;;;7.72;2.88;;;;;;;;;;6264141;22;20003;-56
2022/04/17 11:46:49;;;;;;;4.90;2.58;;;;;;;;;;6266314;22;20003;-53
2022/04/17 11:49:15;;;;;;;2.60;2.25;;;;;;;;;;6264819;22;20016;-56
2022/04/17 11:51:43;;;;;;;4.32;2.67;;;;;;;;;;6265882;22;20020;-56
2022/04/17 11:54:28;;;;;;;4.72;2.67;;;;;;;;;;6265185;22;20061;-57
2022/04/17 11:56:53;;;;;;;3.15;2.33;;;;;;;;;;6266901;22;20063;-56
2022/04/17 11:59:19;;;;;;;3.65;2.53;;;;;;;;;;6264946;22;20012;-56
2022/04/17 12:01:44;;;;;;;2.58;1.75;;;;;;;;;;6267621;22;20004;-54
2022/04/17 12:04:19;;;;;;;2.40;2.00;;;;;;;;;;6264728;22;20004;-56
2022/04/17 12:06:44;;;;;;;4.30;2.08;;;;;;;;;;6266395;22;20055;-54
2022/04/17 12:09:11;;;;;;;5.72;1.98;;;;;;;;;;6264465;22;20008;-56
2022/04/17 12:11:39;;;;;;;4.63;2.60;;;;;;;;;;6266088;22;20023;-57
2022/04/17 12:14:05;;;;;;;2.90;2.30;;;;;;;;;;6264397;22;20026;-56
2022/04/17 12:16:30;;;;;;;3.35;1.77;;;;;;;;;;6265681;22;20011;-56
2022/04/17 12:18:55;;;;;;;3.97;1.95;;;;;;;;;;6265349;22;20007;-55
2022/04/17 12:21:27;;;;;;;3.15;1.58;;;;;;;;;;6265700;22;20011;-54
2022/04/17 12:23:53;;;;;;;3.80;2.28;;;;;;;;;;6264192;22;20011;-55
2022/04/17 12:26:19;;;;;;;1.95;1.67;;;;;;;;;;6263122;22;20034;-54
2022/04/17 12:28:44;;;;;;;2.95;2.17;;;;;;;;;;6263829;22;20024;-55
2022/04/17 12:31:12;;;;;;;3.30;2.08;;;;;;;;;;6266067;22;20015;-53
2022/04/17 12:33:37;;;;;;;5.38;2.10;;;;;;;;;;6265935;22;20008;-58
2022/04/17 12:36:11;;;;;;;2.67;1.55;;;;;;;;;;6264883;22;20073;-55
2022/04/17 12:38:38;;;;;;;3.63;1.77;;;;;;;;;;6265688;22;20086;-56
2022/04/17 12:41:16;;;;;;;2.97;1.83;;;;;;;;;;6265513;22;20024;-55
2022/04/17 12:43:41;;;;;;;2.08;1.70;;;;;;;;;;6264610;22;20007;-55
2022/04/17 12:46:06;;;;;;;3.37;1.83;;;;;;;;;;6263814;22;20038;-54
2022/04/17 12:48:33;;;;;;;3.63;1.77;;;;;;;;;;6265225;22;20260;-54
2022/04/17 12:51:00;;;;;;;3.13;1.52;;;;;;;;;;6265174;22;20026;-56
2022/04/17 12:53:25;;;;;;;2.15;1.75;;;;;;;;;;6264646;22;20034;-54
2022/04/17 12:55:52;;;;;;;1.65;1.40;;;;;;;;;;6265409;22;20008;-52
2022/04/17 12:58:17;;;;;;;3.75;1.85;;;;;;;;;;6266268;22;20111;-53
2022/04/17 13:00:43;;;;;;;1.55;1.30;;;;;;;;;;6264946;22;20038;-56
2022/04/17 13:03:12;;;;;;;2.83;1.92;;;;;;;;;;6266328;22;20007;-54
2022/04/17 13:05:38;;;;;;;3.03;2.17;;;;;;;;;;6264636;22;20008;-56
2022/04/17 13:08:08;;;;;;;4.50;2.95;;;;;;;;;;6265410;22;20023;-54
2022/04/17 13:10:34;;;;;;;2.35;1.55;;;;;;;;;;6265070;22;20058;-55
2022/04/17 13:12:59;;;;;;;2.58;1.42;;;;;;;;;;6262222;22;20016;-55
2022/04/17 13:15:32;;;;;;;5.28;2.42;;;;;;;;;;6262697;22;20027;-53
2022/04/17 13:17:57;;;;;;;2.67;2.33;;;;;;;;;;6264031;22;20082;-55
2022/04/17 13:20:23;;;;;;;3.15;1.73;;;;;;;;;;6265362;22;20019;-53
2022/04/17 13:22:49;;;;;;;2.45;1.73;;;;;;;;;;6264547;22;20007;-53
2022/04/17 13:25:15;;;;;;;2.95;1.70;;;;;;;;;;6265436;22;20016;-53
2022/04/17 13:27:41;;;;;;;2.35;1.50;;;;;;;;;;6264407;22;20059;-53
2022/04/17 13:30:07;;;;;;;2.92;1.73;;;;;;;;;;6266177;22;20023;-52
2022/04/17 13:32:32;;;;;;;2.13;1.50;;;;;;;;;;6263268;22;20012;-54
2022/04/17 13:34:58;;;;;;;3.70;1.95;;;;;;;;;;6266465;22;20012;-52
2022/04/17 13:40:07;;;;;;;3.53;2.00;;;;;;;;;;6263503;22;20026;-52
2022/04/17 13:42:33;;;;;;;1.88;1.40;;;;;;;;;;6264666;22;20004;-53
2022/04/17 13:44:58;;;;;;;3.42;2.35;;;;;;;;;;6264003;22;20012;-54
2022/04/17 13:47:23;;;;;;;5.13;2.33;;;;;;;;;;6264415;22;20004;-54
2022/04/17 13:49:48;;;;;;;2.58;1.80;;;;;;;;;;6265540;22;20011;-51
2022/04/17 13:52:14;;;;;;;9.02;3.03;;;;;;;;;;6264179;22;20012;-54
2022/04/17 13:54:39;;;;;;;5.70;2.10;;;;;;;;;;6265213;22;20071;-52
2022/04/17 13:57:04;;;;;;;3.70;1.48;;;;;;;;;;6267185;22;20468;-55
2022/04/17 13:59:30;;;;;;;1.42;1.30;;;;;;;;;;6266858;22;20012;-55
2022/04/17 14:01:55;;;;;;;3.25;1.38;;;;;;;;;;6267249;22;20012;-55
2022/04/17 14:04:21;;;;;;;2.53;1.52;;;;;;;;;;6266560;22;20012;-55
2022/04/17 14:06:47;;;;;;;2.58;1.42;;;;;;;;;;6267300;22;20012;-57
2022/04/17 14:09:12;;;;;;;2.58;1.35;;;;;;;;;;6263324;22;20009;-54
2022/04/17 14:11:38;;;;;;;2.40;1.48;;;;;;;;;;6267625;22;20079;-55
2022/04/17 14:14:03;;;;;;;3.58;1.45;;;;;;;;;;6265240;22;20008;-53
2022/04/17 14:16:28;;;;;;;3.50;1.70;;;;;;;;;;6266888;22;20011;-55
2022/04/17 14:18:53;;;;;;;3.20;1.65;;;;;;;;;;6265921;22;20031;-56
2022/04/17 14:21:19;;;;;;;3.85;1.33;;;;;;;;;;6266828;22;20681;-53
2022/04/17 14:23:44;;;;;;;8.20;1.40;;;;;;;;;;6264049;22;20559;-54
2022/04/17 14:26:09;;;;;;;1.60;1.50;;;;;;;;;;6267443;22;20008;-56
2022/04/17 14:28:35;;;;;;;4.22;1.70;;;;;;;;;;6265581;22;20038;-54
2022/04/17 14:31:03;;;;;;;3.67;1.75;;;;;;;;;;6267855;22;20016;-55
2022/04/17 14:33:28;;;;;;;1.77;1.17;;;;;;;;;;6263773;22;20106;-56
2022/04/17 14:35:57;;;;;;;2.50;1.63;;;;;;;;;;6268035;22;20679;-55
2022/04/17 14:38:22;;;;;;;1.70;1.50;;;;;;;;;;6265793;22;20034;-56
2022/04/17 14:40:47;;;;;;;1.95;1.40;;;;;;;;;;6267647;22;20027;-56
2022/04/17 14:43:12;;;;;;;5.05;1.60;;;;;;;;;;6265290;22;20570;-54